sensor_id;sensor_type;location;lat;lon;timestamp;P1;durP1;ratioP1;P2;durP2;ratioP2
3698;SDS011;1865;50.918;7.092;2023-05-10T00:01:24;15.50;;;7.10;;
3698;SDS011;1865;50.918;7.092;2023-05-10T00:03:50;12.80;;;7.03;;
3698;SDS011;1865;50.918;7.092;2023-05-10T00:06:15;15.20;;;7.33;;
3698;SDS011;1865;50.918;7.092;2023-05-10T00:08:41;12.00;;;7.50;;
3698;SDS011;1865;50.918;7.092;2023-05-10T00:11:06;14.43;;;7.53;;
3698;SDS011;1865;50.918;7.092;2023-05-10T00:13:32;10.67;;;6.80;;
3698;SDS011;1865;50.918;7.092;2023-05-10T00:15:58;12.97;;;7.20;;
3698;SDS011;1865;50.918;7.092;2023-05-10T00:18:23;14.60;;;7.53;;
3698;SDS011;1865;50.918;7.092;2023-05-10T00:20:49;11.87;;;7.73;;
3698;SDS011;1865;50.918;7.092;2023-05-10T00:23:14;13.70;;;8.23;;
3698;SDS011;1865;50.918;7.092;2023-05-10T00:25:40;13.00;;;8.53;;
3698;SDS011;1865;50.918;7.092;2023-05-10T00:28:05;16.00;;;7.97;;
3698;SDS011;1865;50.918;7.092;2023-05-10T00:30:31;14.87;;;9.07;;
3698;SDS011;1865;50.918;7.092;2023-05-10T00:32:56;14.23;;;9.13;;
3698;SDS011;1865;50.918;7.092;2023-05-10T00:35:22;13.77;;;7.90;;
3698;SDS011;1865;50.918;7.092;2023-05-10T00:37:48;14.50;;;8.87;;
3698;SDS011;1865;50.918;7.092;2023-05-10T00:40:13;15.00;;;9.20;;
3698;SDS011;1865;50.918;7.092;2023-05-10T00:42:39;15.87;;;9.13;;
3698;SDS011;1865;50.918;7.092;2023-05-10T00:45:05;22.10;;;9.40;;
3698;SDS011;1865;50.918;7.092;2023-05-10T00:47:31;14.93;;;9.57;;
3698;SDS011;1865;50.918;7.092;2023-05-10T00:49:58;14.83;;;9.10;;
3698;SDS011;1865;50.918;7.092;2023-05-10T00:52:25;15.50;;;10.53;;
3698;SDS011;1865;50.918;7.092;2023-05-10T00:54:51;15.93;;;9.90;;
3698;SDS011;1865;50.918;7.092;2023-05-10T00:57:17;17.50;;;11.27;;
3698;SDS011;1865;50.918;7.092;2023-05-10T00:59:43;21.20;;;10.67;;
3698;SDS011;1865;50.918;7.092;2023-05-10T01:02:09;19.50;;;10.97;;
3698;SDS011;1865;50.918;7.092;2023-05-10T01:04:35;16.73;;;9.90;;
3698;SDS011;1865;50.918;7.092;2023-05-10T01:07:00;17.00;;;10.73;;
3698;SDS011;1865;50.918;7.092;2023-05-10T01:09:26;19.57;;;10.83;;
3698;SDS011;1865;50.918;7.092;2023-05-10T01:11:52;19.07;;;11.53;;
3698;SDS011;1865;50.918;7.092;2023-05-10T01:14:19;19.20;;;11.27;;
3698;SDS011;1865;50.918;7.092;2023-05-10T01:16:45;21.50;;;10.73;;
3698;SDS011;1865;50.918;7.092;2023-05-10T01:19:22;20.17;;;11.20;;
3698;SDS011;1865;50.918;7.092;2023-05-10T01:22:08;21.77;;;11.97;;
3698;SDS011;1865;50.918;7.092;2023-05-10T01:33:10;17.70;;;11.77;;
3698;SDS011;1865;50.918;7.092;2023-05-10T01:35:57;20.90;;;12.27;;
3698;SDS011;1865;50.918;7.092;2023-05-10T01:38:51;18.67;;;11.80;;
3698;SDS011;1865;50.918;7.092;2023-05-10T01:46:38;21.90;;;12.90;;
3698;SDS011;1865;50.918;7.092;2023-05-10T01:49:07;23.03;;;13.40;;
3698;SDS011;1865;50.918;7.092;2023-05-10T01:51:39;20.37;;;13.50;;
3698;SDS011;1865;50.918;7.092;2023-05-10T01:54:17;22.50;;;13.57;;
3698;SDS011;1865;50.918;7.092;2023-05-10T01:56:44;27.00;;;15.10;;
3698;SDS011;1865;50.918;7.092;2023-05-10T01:59:15;21.13;;;13.80;;
3698;SDS011;1865;50.918;7.092;2023-05-10T02:01:44;20.00;;;12.57;;
3698;SDS011;1865;50.918;7.092;2023-05-10T02:04:11;21.93;;;13.33;;
3698;SDS011;1865;50.918;7.092;2023-05-10T02:06:41;22.80;;;13.50;;
3698;SDS011;1865;50.918;7.092;2023-05-10T02:09:08;24.43;;;13.90;;
3698;SDS011;1865;50.918;7.092;2023-05-10T02:11:37;21.60;;;13.90;;
3698;SDS011;1865;50.918;7.092;2023-05-10T02:14:05;21.47;;;13.20;;
3698;SDS011;1865;50.918;7.092;2023-05-10T02:16:33;21.00;;;13.00;;
3698;SDS011;1865;50.918;7.092;2023-05-10T02:19:01;18.60;;;12.47;;
3698;SDS011;1865;50.918;7.092;2023-05-10T02:21:28;20.60;;;11.50;;
3698;SDS011;1865;50.918;7.092;2023-05-10T02:23:56;20.73;;;12.23;;
3698;SDS011;1865;50.918;7.092;2023-05-10T02:26:23;26.40;;;13.40;;
3698;SDS011;1865;50.918;7.092;2023-05-10T02:28:51;21.10;;;11.77;;
3698;SDS011;1865;50.918;7.092;2023-05-10T02:31:17;20.13;;;11.50;;
3698;SDS011;1865;50.918;7.092;2023-05-10T02:33:44;21.37;;;13.30;;
3698;SDS011;1865;50.918;7.092;2023-05-10T02:36:12;20.43;;;10.27;;
3698;SDS011;1865;50.918;7.092;2023-05-10T02:38:38;24.13;;;9.80;;
3698;SDS011;1865;50.918;7.092;2023-05-10T02:41:05;14.80;;;8.30;;
3698;SDS011;1865;50.918;7.092;2023-05-10T02:43:32;14.47;;;8.60;;
3698;SDS011;1865;50.918;7.092;2023-05-10T02:46:00;16.33;;;7.37;;
3698;SDS011;1865;50.918;7.092;2023-05-10T02:48:27;12.80;;;7.50;;
3698;SDS011;1865;50.918;7.092;2023-05-10T02:50:53;12.50;;;7.40;;
3698;SDS011;1865;50.918;7.092;2023-05-10T02:53:22;12.23;;;7.07;;
3698;SDS011;1865;50.918;7.092;2023-05-10T02:55:54;18.00;;;7.47;;
3698;SDS011;1865;50.918;7.092;2023-05-10T02:58:24;12.40;;;6.07;;
3698;SDS011;1865;50.918;7.092;2023-05-10T03:00:50;13.00;;;7.03;;
3698;SDS011;1865;50.918;7.092;2023-05-10T03:03:15;14.00;;;7.47;;
3698;SDS011;1865;50.918;7.092;2023-05-10T03:05:41;15.00;;;7.70;;
3698;SDS011;1865;50.918;7.092;2023-05-10T03:08:07;15.10;;;7.13;;
3698;SDS011;1865;50.918;7.092;2023-05-10T03:10:33;15.40;;;7.00;;
3698;SDS011;1865;50.918;7.092;2023-05-10T03:20:49;13.77;;;6.40;;
3698;SDS011;1865;50.918;7.092;2023-05-10T03:23:21;10.20;;;5.90;;
3698;SDS011;1865;50.918;7.092;2023-05-10T03:25:59;12.87;;;6.43;;
3698;SDS011;1865;50.918;7.092;2023-05-10T03:28:25;9.83;;;5.93;;
3698;SDS011;1865;50.918;7.092;2023-05-10T03:30:52;14.57;;;6.77;;
3698;SDS011;1865;50.918;7.092;2023-05-10T03:33:19;13.00;;;6.40;;
3698;SDS011;1865;50.918;7.092;2023-05-10T03:35:45;11.67;;;5.97;;
3698;SDS011;1865;50.918;7.092;2023-05-10T03:38:11;12.83;;;6.60;;
3698;SDS011;1865;50.918;7.092;2023-05-10T03:40:37;20.03;;;6.60;;
3698;SDS011;1865;50.918;7.092;2023-05-10T03:43:02;17.27;;;8.03;;
3698;SDS011;1865;50.918;7.092;2023-05-10T03:45:28;14.10;;;7.00;;
3698;SDS011;1865;50.918;7.092;2023-05-10T03:47:53;15.10;;;6.57;;
3698;SDS011;1865;50.918;7.092;2023-05-10T03:50:20;16.53;;;7.90;;
3698;SDS011;1865;50.918;7.092;2023-05-10T03:52:45;17.30;;;6.90;;
3698;SDS011;1865;50.918;7.092;2023-05-10T03:55:11;17.00;;;7.67;;
3698;SDS011;1865;50.918;7.092;2023-05-10T03:57:37;17.97;;;8.83;;
3698;SDS011;1865;50.918;7.092;2023-05-10T04:00:03;17.50;;;7.43;;
3698;SDS011;1865;50.918;7.092;2023-05-10T04:02:29;13.43;;;7.63;;
3698;SDS011;1865;50.918;7.092;2023-05-10T04:04:55;13.93;;;7.53;;
3698;SDS011;1865;50.918;7.092;2023-05-10T04:07:20;17.53;;;8.20;;
3698;SDS011;1865;50.918;7.092;2023-05-10T04:09:46;16.00;;;8.17;;
3698;SDS011;1865;50.918;7.092;2023-05-10T04:12:12;14.27;;;8.00;;
3698;SDS011;1865;50.918;7.092;2023-05-10T04:14:38;15.60;;;8.03;;
3698;SDS011;1865;50.918;7.092;2023-05-10T04:17:03;19.90;;;9.00;;
3698;SDS011;1865;50.918;7.092;2023-05-10T04:19:29;20.63;;;8.53;;
3698;SDS011;1865;50.918;7.092;2023-05-10T04:21:55;13.33;;;7.87;;
3698;SDS011;1865;50.918;7.092;2023-05-10T04:24:21;14.73;;;8.03;;
3698;SDS011;1865;50.918;7.092;2023-05-10T04:26:46;12.27;;;7.67;;
3698;SDS011;1865;50.918;7.092;2023-05-10T04:29:12;20.03;;;8.87;;
3698;SDS011;1865;50.918;7.092;2023-05-10T04:31:37;13.80;;;8.70;;
3698;SDS011;1865;50.918;7.092;2023-05-10T04:34:03;18.60;;;8.83;;
3698;SDS011;1865;50.918;7.092;2023-05-10T04:36:29;18.60;;;7.70;;
3698;SDS011;1865;50.918;7.092;2023-05-10T04:38:54;19.03;;;9.40;;
3698;SDS011;1865;50.918;7.092;2023-05-10T04:41:20;16.23;;;9.03;;
3698;SDS011;1865;50.918;7.092;2023-05-10T04:43:46;22.80;;;11.50;;
3698;SDS011;1865;50.918;7.092;2023-05-10T04:46:14;19.53;;;11.60;;
3698;SDS011;1865;50.918;7.092;2023-05-10T04:48:39;18.13;;;10.50;;
3698;SDS011;1865;50.918;7.092;2023-05-10T04:51:05;20.17;;;10.30;;
3698;SDS011;1865;50.918;7.092;2023-05-10T04:53:31;19.10;;;10.37;;
3698;SDS011;1865;50.918;7.092;2023-05-10T04:55:57;24.03;;;11.20;;
3698;SDS011;1865;50.918;7.092;2023-05-10T04:58:22;21.07;;;12.63;;
3698;SDS011;1865;50.918;7.092;2023-05-10T05:00:48;28.13;;;13.30;;
3698;SDS011;1865;50.918;7.092;2023-05-10T05:03:13;29.37;;;14.80;;
3698;SDS011;1865;50.918;7.092;2023-05-10T05:05:39;24.90;;;13.10;;
3698;SDS011;1865;50.918;7.092;2023-05-10T05:08:05;22.37;;;12.80;;
3698;SDS011;1865;50.918;7.092;2023-05-10T05:10:30;25.07;;;14.07;;
3698;SDS011;1865;50.918;7.092;2023-05-10T05:12:56;31.97;;;15.10;;
3698;SDS011;1865;50.918;7.092;2023-05-10T05:15:21;25.33;;;15.30;;
3698;SDS011;1865;50.918;7.092;2023-05-10T05:17:47;26.00;;;14.00;;
3698;SDS011;1865;50.918;7.092;2023-05-10T05:20:13;28.53;;;13.43;;
3698;SDS011;1865;50.918;7.092;2023-05-10T05:22:38;24.03;;;14.07;;
3698;SDS011;1865;50.918;7.092;2023-05-10T05:25:04;25.07;;;14.80;;
3698;SDS011;1865;50.918;7.092;2023-05-10T05:27:31;27.43;;;12.83;;
3698;SDS011;1865;50.918;7.092;2023-05-10T05:29:57;24.37;;;13.60;;
3698;SDS011;1865;50.918;7.092;2023-05-10T05:32:23;24.80;;;13.80;;
3698;SDS011;1865;50.918;7.092;2023-05-10T05:34:49;30.13;;;14.73;;
3698;SDS011;1865;50.918;7.092;2023-05-10T05:37:15;26.70;;;14.63;;
3698;SDS011;1865;50.918;7.092;2023-05-10T05:39:42;33.27;;;15.30;;
3698;SDS011;1865;50.918;7.092;2023-05-10T05:42:08;27.90;;;13.77;;
3698;SDS011;1865;50.918;7.092;2023-05-10T05:44:34;37.13;;;14.13;;
3698;SDS011;1865;50.918;7.092;2023-05-10T05:47:00;30.70;;;14.43;;
3698;SDS011;1865;50.918;7.092;2023-05-10T05:49:25;34.97;;;15.20;;
3698;SDS011;1865;50.918;7.092;2023-05-10T05:51:51;29.90;;;14.10;;
3698;SDS011;1865;50.918;7.092;2023-05-10T05:54:16;24.07;;;14.30;;
3698;SDS011;1865;50.918;7.092;2023-05-10T05:56:42;24.80;;;13.90;;
3698;SDS011;1865;50.918;7.092;2023-05-10T05:59:09;26.13;;;13.90;;
3698;SDS011;1865;50.918;7.092;2023-05-10T06:01:35;25.30;;;14.00;;
3698;SDS011;1865;50.918;7.092;2023-05-10T06:04:00;30.37;;;13.33;;
3698;SDS011;1865;50.918;7.092;2023-05-10T06:06:26;27.60;;;14.17;;
3698;SDS011;1865;50.918;7.092;2023-05-10T06:08:51;39.60;;;14.60;;
3698;SDS011;1865;50.918;7.092;2023-05-10T06:11:17;29.77;;;14.20;;
3698;SDS011;1865;50.918;7.092;2023-05-10T06:13:42;24.63;;;12.33;;
3698;SDS011;1865;50.918;7.092;2023-05-10T06:16:08;26.93;;;14.33;;
3698;SDS011;1865;50.918;7.092;2023-05-10T06:18:33;28.90;;;14.57;;
3698;SDS011;1865;50.918;7.092;2023-05-10T06:20:59;31.57;;;14.57;;
3698;SDS011;1865;50.918;7.092;2023-05-10T06:23:25;29.83;;;14.70;;
3698;SDS011;1865;50.918;7.092;2023-05-10T06:25:51;23.23;;;12.30;;
3698;SDS011;1865;50.918;7.092;2023-05-10T06:28:17;30.60;;;14.33;;
3698;SDS011;1865;50.918;7.092;2023-05-10T06:30:42;23.63;;;13.37;;
3698;SDS011;1865;50.918;7.092;2023-05-10T06:33:08;28.70;;;13.17;;
3698;SDS011;1865;50.918;7.092;2023-05-10T06:35:33;26.80;;;13.83;;
3698;SDS011;1865;50.918;7.092;2023-05-10T06:37:59;30.47;;;15.60;;
3698;SDS011;1865;50.918;7.092;2023-05-10T06:40:25;26.37;;;14.90;;
3698;SDS011;1865;50.918;7.092;2023-05-10T06:42:50;27.40;;;14.70;;
3698;SDS011;1865;50.918;7.092;2023-05-10T06:45:16;28.50;;;15.83;;
3698;SDS011;1865;50.918;7.092;2023-05-10T06:47:42;31.03;;;15.03;;
3698;SDS011;1865;50.918;7.092;2023-05-10T06:50:08;29.23;;;15.60;;
3698;SDS011;1865;50.918;7.092;2023-05-10T06:52:34;27.70;;;13.80;;
3698;SDS011;1865;50.918;7.092;2023-05-10T06:55:00;30.93;;;14.30;;
3698;SDS011;1865;50.918;7.092;2023-05-10T06:57:26;28.83;;;14.50;;
3698;SDS011;1865;50.918;7.092;2023-05-10T06:59:51;26.83;;;14.60;;
3698;SDS011;1865;50.918;7.092;2023-05-10T07:02:17;26.03;;;14.60;;
3698;SDS011;1865;50.918;7.092;2023-05-10T07:04:43;31.67;;;16.47;;
3698;SDS011;1865;50.918;7.092;2023-05-10T07:07:08;34.30;;;17.97;;
3698;SDS011;1865;50.918;7.092;2023-05-10T07:09:34;28.03;;;15.70;;
3698;SDS011;1865;50.918;7.092;2023-05-10T07:11:59;26.70;;;16.63;;
3698;SDS011;1865;50.918;7.092;2023-05-10T07:14:26;33.50;;;17.03;;
3698;SDS011;1865;50.918;7.092;2023-05-10T07:16:52;31.53;;;17.40;;
3698;SDS011;1865;50.918;7.092;2023-05-10T07:19:18;28.60;;;15.53;;
3698;SDS011;1865;50.918;7.092;2023-05-10T07:21:44;33.30;;;17.90;;
3698;SDS011;1865;50.918;7.092;2023-05-10T07:24:10;36.80;;;17.83;;
3698;SDS011;1865;50.918;7.092;2023-05-10T07:26:35;28.97;;;16.93;;
3698;SDS011;1865;50.918;7.092;2023-05-10T07:29:01;30.30;;;16.30;;
3698;SDS011;1865;50.918;7.092;2023-05-10T07:31:27;30.93;;;16.03;;
3698;SDS011;1865;50.918;7.092;2023-05-10T07:33:53;30.73;;;15.83;;
3698;SDS011;1865;50.918;7.092;2023-05-10T07:36:18;39.43;;;17.00;;
3698;SDS011;1865;50.918;7.092;2023-05-10T07:38:44;28.50;;;16.77;;
3698;SDS011;1865;50.918;7.092;2023-05-10T07:41:11;24.97;;;15.00;;
3698;SDS011;1865;50.918;7.092;2023-05-10T07:43:37;33.30;;;16.07;;
3698;SDS011;1865;50.918;7.092;2023-05-10T07:46:02;24.83;;;15.37;;
3698;SDS011;1865;50.918;7.092;2023-05-10T07:48:28;25.00;;;14.67;;
3698;SDS011;1865;50.918;7.092;2023-05-10T07:50:54;25.37;;;15.60;;
3698;SDS011;1865;50.918;7.092;2023-05-10T07:53:19;28.80;;;15.70;;
3698;SDS011;1865;50.918;7.092;2023-05-10T07:55:49;28.70;;;15.50;;
3698;SDS011;1865;50.918;7.092;2023-05-10T07:58:16;28.53;;;15.30;;
3698;SDS011;1865;50.918;7.092;2023-05-10T08:00:42;29.40;;;15.20;;
3698;SDS011;1865;50.918;7.092;2023-05-10T08:03:07;30.50;;;14.93;;
3698;SDS011;1865;50.918;7.092;2023-05-10T08:05:33;25.50;;;14.33;;
3698;SDS011;1865;50.918;7.092;2023-05-10T08:07:58;31.00;;;15.30;;
3698;SDS011;1865;50.918;7.092;2023-05-10T08:10:24;27.43;;;14.47;;
3698;SDS011;1865;50.918;7.092;2023-05-10T08:12:50;29.37;;;15.57;;
3698;SDS011;1865;50.918;7.092;2023-05-10T08:15:16;25.00;;;14.70;;
3698;SDS011;1865;50.918;7.092;2023-05-10T08:17:41;28.77;;;15.10;;
3698;SDS011;1865;50.918;7.092;2023-05-10T08:20:08;30.97;;;15.03;;
3698;SDS011;1865;50.918;7.092;2023-05-10T08:22:33;30.03;;;16.17;;
3698;SDS011;1865;50.918;7.092;2023-05-10T08:24:59;27.13;;;13.93;;
3698;SDS011;1865;50.918;7.092;2023-05-10T08:27:24;24.10;;;16.07;;
3698;SDS011;1865;50.918;7.092;2023-05-10T08:29:50;26.97;;;15.67;;
3698;SDS011;1865;50.918;7.092;2023-05-10T08:32:16;28.80;;;14.63;;
3698;SDS011;1865;50.918;7.092;2023-05-10T08:34:42;27.87;;;13.63;;
3698;SDS011;1865;50.918;7.092;2023-05-10T08:37:07;28.33;;;14.07;;
3698;SDS011;1865;50.918;7.092;2023-05-10T08:39:37;28.13;;;13.30;;
3698;SDS011;1865;50.918;7.092;2023-05-10T08:42:03;23.10;;;11.60;;
3698;SDS011;1865;50.918;7.092;2023-05-10T08:44:34;24.57;;;12.33;;
3698;SDS011;1865;50.918;7.092;2023-05-10T08:47:02;20.37;;;11.47;;
3698;SDS011;1865;50.918;7.092;2023-05-10T08:49:31;20.00;;;10.70;;
3698;SDS011;1865;50.918;7.092;2023-05-10T08:51:57;22.47;;;11.50;;
3698;SDS011;1865;50.918;7.092;2023-05-10T08:54:26;25.73;;;11.03;;
3698;SDS011;1865;50.918;7.092;2023-05-10T08:56:52;21.10;;;10.60;;
3698;SDS011;1865;50.918;7.092;2023-05-10T08:59:18;22.40;;;11.60;;
3698;SDS011;1865;50.918;7.092;2023-05-10T09:01:44;21.63;;;12.77;;
3698;SDS011;1865;50.918;7.092;2023-05-10T09:04:11;23.43;;;11.83;;
3698;SDS011;1865;50.918;7.092;2023-05-10T09:06:37;18.60;;;10.70;;
3698;SDS011;1865;50.918;7.092;2023-05-10T09:09:03;18.43;;;8.77;;
3698;SDS011;1865;50.918;7.092;2023-05-10T09:11:28;22.67;;;8.10;;
3698;SDS011;1865;50.918;7.092;2023-05-10T09:13:55;14.50;;;6.40;;
3698;SDS011;1865;50.918;7.092;2023-05-10T09:16:21;11.97;;;6.00;;
3698;SDS011;1865;50.918;7.092;2023-05-10T09:18:47;11.37;;;6.20;;
3698;SDS011;1865;50.918;7.092;2023-05-10T09:21:14;13.63;;;5.97;;
3698;SDS011;1865;50.918;7.092;2023-05-10T09:23:42;15.23;;;7.37;;
3698;SDS011;1865;50.918;7.092;2023-05-10T09:26:08;13.47;;;6.83;;
3698;SDS011;1865;50.918;7.092;2023-05-10T09:28:34;14.90;;;6.30;;
3698;SDS011;1865;50.918;7.092;2023-05-10T09:31:22;15.20;;;7.97;;
3698;SDS011;1865;50.918;7.092;2023-05-10T09:33:49;13.00;;;6.80;;
3698;SDS011;1865;50.918;7.092;2023-05-10T09:36:16;14.50;;;7.17;;
3698;SDS011;1865;50.918;7.092;2023-05-10T09:38:48;17.80;;;7.70;;
3698;SDS011;1865;50.918;7.092;2023-05-10T09:41:20;17.73;;;8.30;;
3698;SDS011;1865;50.918;7.092;2023-05-10T09:43:47;13.90;;;7.10;;
3698;SDS011;1865;50.918;7.092;2023-05-10T09:46:13;13.43;;;7.33;;
3698;SDS011;1865;50.918;7.092;2023-05-10T09:48:46;12.33;;;7.40;;
3698;SDS011;1865;50.918;7.092;2023-05-10T09:51:25;15.27;;;7.60;;
3698;SDS011;1865;50.918;7.092;2023-05-10T09:56:37;15.80;;;7.57;;
3698;SDS011;1865;50.918;7.092;2023-05-10T09:59:05;17.00;;;8.37;;
3698;SDS011;1865;50.918;7.092;2023-05-10T10:01:32;18.50;;;9.40;;
3698;SDS011;1865;50.918;7.092;2023-05-10T10:03:58;18.63;;;10.40;;
3698;SDS011;1865;50.918;7.092;2023-05-10T10:06:27;26.70;;;11.90;;
3698;SDS011;1865;50.918;7.092;2023-05-10T10:08:53;21.20;;;11.20;;
3698;SDS011;1865;50.918;7.092;2023-05-10T10:11:19;23.53;;;11.57;;
3698;SDS011;1865;50.918;7.092;2023-05-10T10:13:45;23.97;;;12.40;;
3698;SDS011;1865;50.918;7.092;2023-05-10T10:16:11;22.80;;;11.60;;
3698;SDS011;1865;50.918;7.092;2023-05-10T10:18:36;30.70;;;14.13;;
3698;SDS011;1865;50.918;7.092;2023-05-10T10:21:08;31.17;;;13.90;;
3698;SDS011;1865;50.918;7.092;2023-05-10T10:23:36;30.03;;;13.27;;
3698;SDS011;1865;50.918;7.092;2023-05-10T10:26:02;25.73;;;13.30;;
3698;SDS011;1865;50.918;7.092;2023-05-10T10:28:39;23.83;;;12.80;;
3698;SDS011;1865;50.918;7.092;2023-05-10T10:31:18;27.77;;;12.80;;
3698;SDS011;1865;50.918;7.092;2023-05-10T10:34:10;33.10;;;13.97;;
3698;SDS011;1865;50.918;7.092;2023-05-10T10:36:50;31.73;;;14.33;;
3698;SDS011;1865;50.918;7.092;2023-05-10T10:39:15;27.23;;;13.47;;
3698;SDS011;1865;50.918;7.092;2023-05-10T10:41:51;29.80;;;13.03;;
3698;SDS011;1865;50.918;7.092;2023-05-10T10:47:23;30.20;;;13.40;;
3698;SDS011;1865;50.918;7.092;2023-05-10T10:55:22;19.60;;;10.67;;
3698;SDS011;1865;50.918;7.092;2023-05-10T10:57:52;15.80;;;9.10;;
3698;SDS011;1865;50.918;7.092;2023-05-10T11:05:49;16.53;;;8.60;;
3698;SDS011;1865;50.918;7.092;2023-05-10T11:08:26;19.70;;;7.57;;
3698;SDS011;1865;50.918;7.092;2023-05-10T11:13:37;16.63;;;8.60;;
3698;SDS011;1865;50.918;7.092;2023-05-10T11:21:31;16.83;;;8.70;;
3698;SDS011;1865;50.918;7.092;2023-05-10T11:23:59;18.47;;;8.70;;
3698;SDS011;1865;50.918;7.092;2023-05-10T11:26:30;13.10;;;6.30;;
3698;SDS011;1865;50.918;7.092;2023-05-10T11:28:59;11.77;;;5.57;;
3698;SDS011;1865;50.918;7.092;2023-05-10T11:31:26;17.03;;;6.60;;
3698;SDS011;1865;50.918;7.092;2023-05-10T11:33:55;12.10;;;6.20;;
3698;SDS011;1865;50.918;7.092;2023-05-10T11:36:23;17.80;;;7.47;;
3698;SDS011;1865;50.918;7.092;2023-05-10T11:38:52;16.13;;;6.90;;
3698;SDS011;1865;50.918;7.092;2023-05-10T11:41:19;14.80;;;6.90;;
3698;SDS011;1865;50.918;7.092;2023-05-10T11:43:52;12.67;;;6.70;;
3698;SDS011;1865;50.918;7.092;2023-05-10T11:46:19;12.93;;;6.40;;
3698;SDS011;1865;50.918;7.092;2023-05-10T11:48:46;15.10;;;5.93;;
3698;SDS011;1865;50.918;7.092;2023-05-10T11:51:14;9.07;;;4.30;;
3698;SDS011;1865;50.918;7.092;2023-05-10T11:53:39;11.23;;;4.00;;
3698;SDS011;1865;50.918;7.092;2023-05-10T11:56:06;10.10;;;3.90;;
3698;SDS011;1865;50.918;7.092;2023-05-10T11:58:32;6.80;;;2.90;;
3698;SDS011;1865;50.918;7.092;2023-05-10T12:00:59;8.27;;;3.40;;
3698;SDS011;1865;50.918;7.092;2023-05-10T12:03:25;6.97;;;3.30;;
3698;SDS011;1865;50.918;7.092;2023-05-10T12:05:51;9.83;;;3.83;;
3698;SDS011;1865;50.918;7.092;2023-05-10T12:08:20;10.80;;;3.63;;
3698;SDS011;1865;50.918;7.092;2023-05-10T12:10:47;7.43;;;3.17;;
3698;SDS011;1865;50.918;7.092;2023-05-10T12:13:12;7.00;;;2.93;;
3698;SDS011;1865;50.918;7.092;2023-05-10T12:15:40;6.97;;;3.60;;
3698;SDS011;1865;50.918;7.092;2023-05-10T12:18:10;7.53;;;3.50;;
3698;SDS011;1865;50.918;7.092;2023-05-10T12:20:37;6.60;;;3.23;;
3698;SDS011;1865;50.918;7.092;2023-05-10T12:23:03;6.30;;;2.93;;
3698;SDS011;1865;50.918;7.092;2023-05-10T12:25:31;6.07;;;2.33;;
3698;SDS011;1865;50.918;7.092;2023-05-10T12:27:58;6.77;;;2.37;;
3698;SDS011;1865;50.918;7.092;2023-05-10T12:30:28;8.93;;;2.80;;
3698;SDS011;1865;50.918;7.092;2023-05-10T12:33:08;7.40;;;2.90;;
3698;SDS011;1865;50.918;7.092;2023-05-10T12:35:51;5.63;;;2.37;;
3698;SDS011;1865;50.918;7.092;2023-05-10T12:38:27;5.47;;;2.10;;
3698;SDS011;1865;50.918;7.092;2023-05-10T12:40:59;8.60;;;2.70;;
3698;SDS011;1865;50.918;7.092;2023-05-10T12:43:25;6.93;;;2.53;;
3698;SDS011;1865;50.918;7.092;2023-05-10T12:45:51;7.20;;;2.60;;
3698;SDS011;1865;50.918;7.092;2023-05-10T12:48:16;6.37;;;2.00;;
3698;SDS011;1865;50.918;7.092;2023-05-10T12:50:42;6.80;;;2.37;;
3698;SDS011;1865;50.918;7.092;2023-05-10T12:53:07;5.80;;;2.20;;
3698;SDS011;1865;50.918;7.092;2023-05-10T12:55:33;6.40;;;2.10;;
3698;SDS011;1865;50.918;7.092;2023-05-10T12:57:59;5.97;;;1.93;;
3698;SDS011;1865;50.918;7.092;2023-05-10T13:00:24;5.33;;;2.00;;
3698;SDS011;1865;50.918;7.092;2023-05-10T13:02:50;6.70;;;1.90;;
3698;SDS011;1865;50.918;7.092;2023-05-10T13:05:16;6.33;;;1.80;;
3698;SDS011;1865;50.918;7.092;2023-05-10T13:07:41;5.23;;;2.23;;
3698;SDS011;1865;50.918;7.092;2023-05-10T13:10:08;5.70;;;2.00;;
3698;SDS011;1865;50.918;7.092;2023-05-10T13:12:35;5.40;;;1.80;;
3698;SDS011;1865;50.918;7.092;2023-05-10T13:15:00;5.70;;;1.30;;
3698;SDS011;1865;50.918;7.092;2023-05-10T13:17:27;5.50;;;1.10;;
3698;SDS011;1865;50.918;7.092;2023-05-10T13:19:53;4.90;;;0.90;;
3698;SDS011;1865;50.918;7.092;2023-05-10T13:22:19;5.87;;;1.30;;
3698;SDS011;1865;50.918;7.092;2023-05-10T13:24:44;9.23;;;1.43;;
3698;SDS011;1865;50.918;7.092;2023-05-10T13:27:10;7.43;;;1.70;;
3698;SDS011;1865;50.918;7.092;2023-05-10T13:29:35;10.50;;;1.90;;
3698;SDS011;1865;50.918;7.092;2023-05-10T13:32:01;6.47;;;1.40;;
3698;SDS011;1865;50.918;7.092;2023-05-10T13:34:26;6.23;;;1.10;;
3698;SDS011;1865;50.918;7.092;2023-05-10T13:36:52;6.70;;;1.20;;
3698;SDS011;1865;50.918;7.092;2023-05-10T13:39:19;5.80;;;1.00;;
3698;SDS011;1865;50.918;7.092;2023-05-10T13:41:45;7.07;;;1.20;;
3698;SDS011;1865;50.918;7.092;2023-05-10T13:44:14;6.80;;;1.50;;
3698;SDS011;1865;50.918;7.092;2023-05-10T13:46:40;7.70;;;1.50;;
3698;SDS011;1865;50.918;7.092;2023-05-10T13:49:07;6.83;;;1.30;;
3698;SDS011;1865;50.918;7.092;2023-05-10T13:51:33;6.77;;;1.60;;
3698;SDS011;1865;50.918;7.092;2023-05-10T13:53:59;7.43;;;1.37;;
3698;SDS011;1865;50.918;7.092;2023-05-10T13:56:25;7.00;;;1.40;;
3698;SDS011;1865;50.918;7.092;2023-05-10T13:58:50;6.60;;;1.53;;
3698;SDS011;1865;50.918;7.092;2023-05-10T14:01:16;6.60;;;1.60;;
3698;SDS011;1865;50.918;7.092;2023-05-10T14:03:41;6.87;;;1.13;;
3698;SDS011;1865;50.918;7.092;2023-05-10T14:06:07;6.00;;;1.50;;
3698;SDS011;1865;50.918;7.092;2023-05-10T14:08:33;5.90;;;1.30;;
3698;SDS011;1865;50.918;7.092;2023-05-10T14:11:00;6.50;;;1.70;;
3698;SDS011;1865;50.918;7.092;2023-05-10T14:13:26;7.00;;;1.70;;
3698;SDS011;1865;50.918;7.092;2023-05-10T14:15:52;6.53;;;1.80;;
3698;SDS011;1865;50.918;7.092;2023-05-10T14:18:18;5.80;;;1.30;;
3698;SDS011;1865;50.918;7.092;2023-05-10T14:20:44;6.63;;;1.80;;
3698;SDS011;1865;50.918;7.092;2023-05-10T14:23:09;5.17;;;1.10;;
3698;SDS011;1865;50.918;7.092;2023-05-10T14:25:35;6.40;;;1.00;;
3698;SDS011;1865;50.918;7.092;2023-05-10T14:28:01;7.17;;;1.23;;
3698;SDS011;1865;50.918;7.092;2023-05-10T14:30:26;5.43;;;1.00;;
3698;SDS011;1865;50.918;7.092;2023-05-10T14:32:52;5.13;;;0.93;;
3698;SDS011;1865;50.918;7.092;2023-05-10T14:35:19;5.30;;;1.00;;
3698;SDS011;1865;50.918;7.092;2023-05-10T14:37:44;4.93;;;0.80;;
3698;SDS011;1865;50.918;7.092;2023-05-10T14:40:10;6.50;;;1.60;;
3698;SDS011;1865;50.918;7.092;2023-05-10T14:42:36;9.93;;;1.10;;
3698;SDS011;1865;50.918;7.092;2023-05-10T14:45:02;5.60;;;1.17;;
3698;SDS011;1865;50.918;7.092;2023-05-10T14:47:28;7.57;;;1.20;;
3698;SDS011;1865;50.918;7.092;2023-05-10T14:49:54;5.80;;;1.20;;
3698;SDS011;1865;50.918;7.092;2023-05-10T14:52:19;9.80;;;2.00;;
3698;SDS011;1865;50.918;7.092;2023-05-10T14:54:45;7.10;;;1.43;;
3698;SDS011;1865;50.918;7.092;2023-05-10T14:57:11;6.77;;;1.87;;
3698;SDS011;1865;50.918;7.092;2023-05-10T14:59:36;5.50;;;1.10;;
3698;SDS011;1865;50.918;7.092;2023-05-10T15:02:02;5.77;;;1.10;;
3698;SDS011;1865;50.918;7.092;2023-05-10T15:04:29;6.60;;;1.40;;
3698;SDS011;1865;50.918;7.092;2023-05-10T15:06:54;6.60;;;0.90;;
3698;SDS011;1865;50.918;7.092;2023-05-10T15:09:24;6.83;;;1.20;;
3698;SDS011;1865;50.918;7.092;2023-05-10T15:11:49;7.20;;;1.00;;
3698;SDS011;1865;50.918;7.092;2023-05-10T15:14:15;10.50;;;1.00;;
3698;SDS011;1865;50.918;7.092;2023-05-10T15:16:41;6.43;;;1.33;;
3698;SDS011;1865;50.918;7.092;2023-05-10T15:19:06;6.53;;;1.00;;
3698;SDS011;1865;50.918;7.092;2023-05-10T15:21:32;8.30;;;1.10;;
3698;SDS011;1865;50.918;7.092;2023-05-10T15:24:03;5.50;;;1.10;;
3698;SDS011;1865;50.918;7.092;2023-05-10T15:26:32;6.13;;;1.17;;
3698;SDS011;1865;50.918;7.092;2023-05-10T15:28:58;7.50;;;1.20;;
3698;SDS011;1865;50.918;7.092;2023-05-10T15:31:23;5.67;;;0.97;;
3698;SDS011;1865;50.918;7.092;2023-05-10T15:33:49;10.53;;;1.40;;
3698;SDS011;1865;50.918;7.092;2023-05-10T15:36:14;11.53;;;1.00;;
3698;SDS011;1865;50.918;7.092;2023-05-10T15:38:42;6.80;;;1.23;;
3698;SDS011;1865;50.918;7.092;2023-05-10T15:41:08;5.07;;;1.00;;
3698;SDS011;1865;50.918;7.092;2023-05-10T15:43:33;7.23;;;1.10;;